Time;durP1;ratioP1;P1;durP2;ratioP2;P2;SDS_P1;SDS_P2;PMS_P1;PMS_P2;Temp;Humidity;BMP_temperature;BMP_pressure;BME280_temperature;BME280_humidity;BME280_pressure;Samples;Min_cycle;Max_cycle;Signal;HPM_P1;HPM_P2
2021/08/11 00:03:06;;;;;;;1.97;1.77;;;20.40;66.10;;;;;;10513046;28;20666;-64
2021/08/11 00:08:28;;;;;;;2.47;1.70;;;20.40;65.30;;;;;;10536399;28;20577;-63
2021/08/11 00:13:52;;;;;;;2.03;1.83;;;20.40;65.70;;;;;;10541326;28;20191;-64
2021/08/11 00:19:14;;;;;;;1.93;1.70;;;20.50;66.30;;;;;;10541279;28;20214;-63
2021/08/11 00:24:36;;;;;;;1.97;1.77;;;20.40;65.70;;;;;;10535195;28;20191;-64
2021/08/11 00:30:00;;;;;;;2.37;2.07;;;20.40;64.70;;;;;;10540969;28;20215;-64
2021/08/11 00:35:22;;;;;;;1.47;1.37;;;20.40;65.60;;;;;;10537251;28;20226;-63
2021/08/11 00:40:45;;;;;;;1.90;1.70;;;20.40;66.10;;;;;;11600923;22;20737;-62
2021/08/11 00:46:10;;;;;;;1.87;1.67;;;20.40;65.40;;;;;;10498051;28;20200;-63
2021/08/11 00:51:32;;;;;;;1.50;1.40;;;20.40;65.20;;;;;;10487503;28;20228;-62
2021/08/11 00:56:56;;;;;;;1.87;1.67;;;20.50;66.30;;;;;;10476299;28;20597;-61
2021/08/11 01:02:21;;;;;;;1.90;1.70;;;20.40;66.10;;;;;;10455603;28;20217;-62
2021/08/11 01:07:44;;;;;;;1.70;1.60;;;20.40;65.30;;;;;;10455669;28;20540;-61
2021/08/11 01:13:07;;;;;;;1.63;1.53;;;20.40;65.80;;;;;;10454900;28;20213;-63
2021/08/11 01:18:31;;;;;;;2.57;1.50;;;20.40;66.40;;;;;;10462316;28;20227;-63
2021/08/11 01:24:00;;;;;;;1.90;1.80;;;20.40;65.70;;;;;;10497352;28;20200;-63
2021/08/11 01:29:30;;;;;;;1.53;1.43;;;20.40;64.90;;;;;;10414078;28;20588;-64
2021/08/11 01:34:55;;;;;;;1.60;1.50;;;20.40;66.00;;;;;;10414024;28;20703;-64
2021/08/11 01:40:23;;;;;;;1.70;1.60;;;20.40;66.40;;;;;;10442662;28;20754;-63
2021/08/11 01:45:45;;;;;;;1.77;1.67;;;20.50;65.40;;;;;;10454154;28;20193;-64
2021/08/11 01:51:11;;;;;;;1.30;1.20;;;20.40;65.70;;;;;;10412338;28;20221;-64
2021/08/11 01:56:34;;;;;;;1.33;1.23;;;20.40;66.40;;;;;;10413105;28;20217;-62
2021/08/11 02:01:57;;;;;;;1.60;1.50;;;20.40;65.80;;;;;;10419895;28;20224;-63
2021/08/11 02:07:20;;;;;;;1.20;1.10;;;20.40;65.20;;;;;;10453817;28;20197;-63
2021/08/11 02:12:42;;;;;;;1.60;1.50;;;20.40;66.20;;;;;;10452973;28;20455;-64
2021/08/11 02:18:05;;;;;;;1.50;1.40;;;20.80;65.10;;;;;;10484154;28;20216;-64
2021/08/11 02:23:28;;;;;;;1.53;1.20;;;20.60;64.50;;;;;;10455028;28;20217;-63
2021/08/11 02:28:57;;;;;;;1.20;1.10;;;20.50;65.30;;;;;;10456744;28;20224;-63
2021/08/11 02:34:32;;;;;;;2.30;1.30;;;20.40;66.10;;;;;;10453385;28;20201;-62
2021/08/11 02:40:06;;;;;;;1.43;1.30;;;20.40;65.50;;;;;;10452596;28;20290;-62
2021/08/11 02:45:31;;;;;;;1.10;1.00;;;20.50;65.80;;;;;;10458034;28;20575;-63
2021/08/11 02:50:53;;;;;;;1.40;1.30;;;20.40;66.50;;;;;;10410361;28;20214;-63
2021/08/11 02:56:17;;;;;;;1.33;1.23;;;20.30;66.10;;;;;;10418042;28;20225;-63
2021/08/11 03:01:39;;;;;;;1.40;0.93;;;20.40;65.70;;;;;;10448579;28;20710;-62
2021/08/11 03:07:02;;;;;;;1.30;1.20;;;20.40;66.60;;;;;;10451189;28;20794;-63
2021/08/11 03:12:26;;;;;;;1.20;1.10;;;20.80;65.60;;;;;;10451394;28;20710;-63
2021/08/11 03:17:50;;;;;;;1.17;1.07;;;20.50;64.50;;;;;;10452288;28;20690;-62
2021/08/11 03:23:14;;;;;;;0.90;0.90;;;20.40;65.90;;;;;;10452103;28;20220;-62
2021/08/11 03:28:37;;;;;;;1.23;1.00;;;20.30;66.30;;;;;;10449460;28;20216;-63
2021/08/11 03:33:59;;;;;;;0.80;0.80;;;20.30;65.70;;;;;;10450588;28;20197;-67
2021/08/11 03:39:21;;;;;;;0.70;0.70;;;20.30;66.10;;;;;;10450313;28;20216;-63
2021/08/11 03:44:45;;;;;;;0.93;0.87;;;20.30;66.80;;;;;;10451141;28;20215;-63
2021/08/11 03:50:07;;;;;;;0.90;0.90;;;20.30;66.40;;;;;;10448914;28;20209;-61
2021/08/11 03:55:31;;;;;;;0.67;0.67;;;20.30;66.00;;;;;;10446953;28;20216;-64
2021/08/11 04:00:55;;;;;;;1.07;0.97;;;20.30;66.80;;;;;;10447328;28;20217;-63
2021/08/11 04:06:17;;;;;;;0.80;0.80;;;20.30;67.10;;;;;;10448442;28;20197;-62
2021/08/11 04:11:39;;;;;;;0.77;0.77;;;20.30;65.90;;;;;;10456225;28;20213;-61
2021/08/11 04:17:03;;;;;;;0.70;0.70;;;20.30;66.80;;;;;;10456710;28;20216;-63
2021/08/11 04:22:25;;;;;;;0.83;0.73;;;20.30;67.20;;;;;;10460917;28;20221;-63
2021/08/11 04:27:47;;;;;;;0.80;0.80;;;20.30;66.20;;;;;;10462008;28;20200;-62
2021/08/11 04:33:10;;;;;;;0.80;0.80;;;20.30;66.60;;;;;;10455038;28;20213;-62
2021/08/11 04:38:33;;;;;;;0.60;0.60;;;20.30;67.20;;;;;;10457394;28;20907;-62
2021/08/11 04:43:55;;;;;;;0.70;0.70;;;20.30;66.50;;;;;;10456065;28;20675;-62
2021/08/11 04:49:18;;;;;;;0.70;0.70;;;20.40;66.60;;;;;;10456498;28;20216;-62
2021/08/11 04:54:40;;;;;;;0.80;0.80;;;20.30;67.10;;;;;;10453934;28;20548;-62
2021/08/11 05:00:03;;;;;;;1.00;1.00;;;20.40;66.70;;;;;;10452100;28;20417;-62
2021/08/11 05:05:26;;;;;;;0.80;0.73;;;20.80;65.20;;;;;;10455322;28;20186;-63
2021/08/11 05:10:49;;;;;;;0.93;0.93;;;20.60;66.40;;;;;;10451872;28;20758;-61
2021/08/11 05:16:11;;;;;;;1.10;1.00;;;20.50;66.40;;;;;;10452415;28;20564;-61
2021/08/11 05:21:35;;;;;;;1.20;1.10;;;20.50;65.70;;;;;;10448756;28;20427;-59
2021/08/11 05:26:57;;;;;;;1.10;0.97;;;20.90;64.90;;;;;;10456136;28;20202;-63
2021/08/11 05:32:19;;;;;;;1.30;1.20;;;20.60;66.00;;;;;;10452650;28;20232;-62
2021/08/11 05:37:43;;;;;;;1.20;1.10;;;20.50;65.30;;;;;;10454038;28;20209;-62
2021/08/11 05:43:05;;;;;;;1.20;1.10;;;20.50;66.40;;;;;;10452416;28;20587;-63
2021/08/11 05:48:29;;;;;;;1.37;1.27;;;20.40;67.00;;;;;;10452648;28;20218;-62
2021/08/11 05:53:52;;;;;;;1.70;1.60;;;20.40;66.20;;;;;;10448899;28;20488;-62
2021/08/11 05:59:15;;;;;;;1.47;1.37;;;20.80;65.00;;;;;;10451990;28;20738;-62
2021/08/11 06:04:37;;;;;;;1.60;1.50;;;20.60;66.20;;;;;;10454764;28;20678;-62
2021/08/11 06:10:00;;;;;;;1.50;1.40;;;20.40;66.10;;;;;;10452954;28;20223;-64
2021/08/11 06:15:23;;;;;;;1.50;1.40;;;20.40;65.30;;;;;;10452449;28;20216;-63
2021/08/11 06:20:47;;;;;;;1.97;1.70;;;20.40;66.30;;;;;;10451758;28;20236;-63
2021/08/11 06:26:10;;;;;;;2.57;1.30;;;20.30;66.80;;;;;;10452996;28;20201;-66
2021/08/11 06:31:32;;;;;;;1.67;1.57;;;20.40;66.10;;;;;;10452951;28;20687;-62
2021/08/11 06:36:56;;;;;;;1.70;1.60;;;20.40;67.00;;;;;;10459608;28;20224;-63
2021/08/11 06:42:19;;;;;;;2.10;1.80;;;20.20;67.40;;;;;;10469146;28;20232;-60
2021/08/11 06:47:42;;;;;;;1.67;1.57;;;20.20;67.90;;;;;;10452988;28;20197;-63
2021/08/11 06:53:04;;;;;;;2.80;2.57;;;20.20;68.20;;;;;;10452139;28;20216;-60
2021/08/11 06:58:27;;;;;;;2.37;1.93;;;20.20;68.60;;;;;;10451547;28;20476;-63
2021/08/11 07:03:49;;;;;;;2.40;2.20;;;20.10;68.80;;;;;;10453021;28;20202;-60
2021/08/11 07:09:11;;;;;;;2.07;1.90;;;20.10;69.00;;;;;;10456291;28;20219;-61
2021/08/11 07:14:35;;;;;;;2.37;2.17;;;20.10;69.20;;;;;;10493271;28;20283;-60
2021/08/11 07:19:57;;;;;;;4.13;3.27;;;20.10;69.40;;;;;;10461869;28;20232;-69
2021/08/11 07:25:20;;;;;;;3.47;3.17;;;20.10;69.80;;;;;;10452753;28;20216;-69
2021/08/11 07:30:45;;;;;;;4.20;3.80;;;20.10;70.40;;;;;;10454089;28;20714;-71
2021/08/11 07:36:07;;;;;;;6.33;3.73;;;20.10;70.70;;;;;;10452908;28;20219;-63
2021/08/11 07:41:30;;;;;;;3.83;2.63;;;20.10;71.10;;;;;;10480388;28;20580;-64
2021/08/11 07:46:53;;;;;;;3.47;2.90;;;20.10;70.70;;;;;;10462679;28;20205;-61
2021/08/11 07:52:15;;;;;;;2.87;2.63;;;20.10;70.90;;;;;;10470915;28;20236;-65
2021/08/11 07:57:38;;;;;;;3.20;2.63;;;20.10;71.30;;;;;;10450230;28;20260;-62
2021/08/11 08:03:01;;;;;;;3.07;2.73;;;20.10;70.30;;;;;;10453288;28;20338;-64
2021/08/11 08:08:23;;;;;;;14.87;3.67;;;20.20;70.80;;;;;;10498970;28;20574;-63
2021/08/11 08:13:46;;;;;;;28.20;5.83;;;20.20;71.60;;;;;;10499988;28;20196;-64
2021/08/11 08:19:09;;;;;;;17.97;4.43;;;20.20;72.30;;;;;;10477130;28;20217;-65
2021/08/11 08:24:32;;;;;;;20.13;3.50;;;20.30;71.40;;;;;;10457451;28;20193;-65
2021/08/11 08:29:57;;;;;;;12.97;2.97;;;20.20;71.60;;;;;;10456532;28;20255;-64
2021/08/11 08:35:21;;;;;;;14.07;3.60;;;20.20;71.70;;;;;;10461459;28;20203;-63
2021/08/11 08:40:45;;;;;;;6.30;3.10;;;20.20;71.70;;;;;;10460996;28;20208;-64
2021/08/11 08:46:08;;;;;;;7.80;2.80;;;20.20;71.10;;;;;;10451285;28;20192;-64
2021/08/11 08:51:38;;;;;;;4.97;2.73;;;20.20;71.70;;;;;;10454494;28;20221;-64
2021/08/11 08:57:00;;;;;;;3.50;2.47;;;20.20;71.80;;;;;;10446228;28;20268;-64
2021/08/11 09:02:22;;;;;;;7.73;2.50;;;20.10;71.80;;;;;;10447068;28;20562;-65
2021/08/11 09:07:47;;;;;;;4.50;2.30;;;20.20;71.00;;;;;;10450591;28;20583;-65
2021/08/11 09:13:19;;;;;;;6.33;2.60;;;20.20;71.70;;;;;;10450433;28;20225;-64
2021/08/11 09:18:52;;;;;;;4.10;2.40;;;20.20;71.80;;;;;;10448516;28;20347;-63
2021/08/11 09:24:18;;;;;;;5.17;2.30;;;20.10;71.80;;;;;;10493493;28;20285;-64
2021/08/11 09:30:01;;;;;;;3.17;2.20;;;20.20;70.90;;;;;;10468275;28;20228;-65
2021/08/11 09:35:25;;;;;;;4.30;2.30;;;20.20;71.50;;;;;;10462676;28;20203;-64
2021/08/11 09:40:50;;;;;;;4.07;1.90;;;20.10;71.70;;;;;;10495081;28;20220;-67
2021/08/11 09:46:13;;;;;;;4.82;2.60;;;20.10;71.80;;;;;;10447861;28;20459;-64
2021/08/11 09:51:41;;;;;;;2.70;2.03;;;20.70;68.90;;;;;;10447986;28;20728;-64
2021/08/11 09:57:05;;;;;;;3.60;2.30;;;20.40;70.40;;;;;;10447254;28;20220;-65
2021/08/11 10:02:27;;;;;;;3.33;2.13;;;20.20;71.20;;;;;;10447347;28;20213;-64
2021/08/11 10:07:53;;;;;;;3.03;2.30;;;20.20;71.60;;;;;;10448443;28;20196;-63
2021/08/11 10:13:21;;;;;;;3.43;2.03;;;20.10;71.80;;;;;;10452747;28;20217;-63
2021/08/11 10:18:44;;;;;;;3.00;2.40;;;20.10;71.50;;;;;;10452173;28;20221;-64
2021/08/11 10:24:07;;;;;;;3.70;2.37;;;20.10;72.00;;;;;;10446030;28;20206;-63
2021/08/11 10:29:30;;;;;;;3.30;2.50;;;20.10;72.20;;;;;;10454772;28;20220;-65
2021/08/11 10:34:55;;;;;;;3.47;2.30;;;20.10;72.40;;;;;;10448798;28;20200;-62
2021/08/11 10:40:17;;;;;;;2.47;2.17;;;20.10;71.30;;;;;;10449871;28;20307;-62
2021/08/11 10:45:43;;;;;;;2.00;1.80;;;20.10;71.90;;;;;;10455954;28;20196;-65
2021/08/11 10:51:06;;;;;;;2.10;1.90;;;20.10;72.10;;;;;;10451200;28;20221;-64
2021/08/11 10:56:42;;;;;;;2.23;2.00;;;20.00;72.20;;;;;;10452379;28;20683;-64
2021/08/11 11:02:43;;;;;;;2.50;2.30;;;20.10;71.30;;;;;;10451092;28;20783;-67
2021/08/11 11:08:39;;;;;;;2.30;1.97;;;20.20;71.70;;;;;;10452648;28;20205;-67
2021/08/11 11:14:01;;;;;;;2.27;2.07;;;20.10;72.00;;;;;;10284387;28;20200;-67
2021/08/11 11:19:24;;;;;;;3.53;2.30;;;20.10;72.40;;;;;;10426955;28;20602;-67
2021/08/11 11:24:51;;;;;;;3.87;2.23;;;20.10;71.40;;;;;;10408275;28;20194;-68
2021/08/11 11:30:14;;;;;;;2.57;2.37;;;20.10;72.00;;;;;;10449911;28;20573;-68
2021/08/11 11:35:38;;;;;;;2.40;1.97;;;20.00;72.20;;;;;;10449650;28;20203;-64
2021/08/11 11:41:07;;;;;;;2.13;1.93;;;20.00;72.40;;;;;;10444400;28;20294;-61
2021/08/11 11:46:47;;;;;;;2.33;2.13;;;20.10;71.60;;;;;;10416783;28;20279;-62
2021/08/11 11:52:20;;;;;;;4.10;2.20;;;20.00;72.10;;;;;;10449428;28;20224;-65
2021/08/11 11:57:42;;;;;;;2.47;1.90;;;20.00;72.30;;;;;;10449005;28;20412;-65
2021/08/11 12:03:05;;;;;;;2.50;2.30;;;20.00;72.50;;;;;;10449012;28;20220;-64
2021/08/11 12:08:28;;;;;;;2.03;1.50;;;20.00;71.70;;;;;;10446836;28;20186;-65
2021/08/11 12:13:51;;;;;;;2.20;1.90;;;20.00;72.30;;;;;;10449024;28;20208;-65
2021/08/11 12:19:15;;;;;;;2.00;1.80;;;20.00;72.50;;;;;;10456822;28;20231;-65
2021/08/11 12:24:46;;;;;;;2.03;1.80;;;20.00;72.60;;;;;;10449388;28;20672;-65
2021/08/11 12:30:18;;;;;;;2.70;1.97;;;20.00;71.70;;;;;;10452013;28;20716;-66
2021/08/11 12:35:41;;;;;;;3.57;2.10;;;20.00;72.20;;;;;;10454208;28;20328;-66
2021/08/11 12:41:19;;;;;;;2.17;1.90;;;19.90;72.40;;;;;;10453895;28;20308;-66
2021/08/11 12:46:46;;;;;;;2.10;1.77;;;19.90;72.40;;;;;;10459852;28;20193;-66
2021/08/11 12:52:17;;;;;;;1.90;1.77;;;20.00;71.60;;;;;;10457144;28;20213;-65
2021/08/11 12:57:53;;;;;;;2.27;2.00;;;19.90;72.10;;;;;;10456949;28;20238;-66
2021/08/11 13:03:15;;;;;;;2.23;1.70;;;19.90;72.20;;;;;;10457943;28;20243;-66
2021/08/11 13:08:38;;;;;;;1.90;1.70;;;19.90;72.20;;;;;;10461312;28;20189;-65
2021/08/11 13:14:02;;;;;;;1.70;1.60;;;20.00;71.90;;;;;;10457566;28;20200;-65
2021/08/11 13:19:24;;;;;;;2.10;1.80;;;19.90;72.20;;;;;;10455543;28;20221;-65
2021/08/11 13:24:46;;;;;;;2.37;1.70;;;20.00;72.50;;;;;;10456727;28;20201;-65
2021/08/11 13:30:11;;;;;;;1.50;1.40;;;20.00;72.30;;;;;;10448632;28;20220;-64
2021/08/11 13:35:33;;;;;;;2.57;1.77;;;20.00;72.00;;;;;;10495552;28;20197;-64
2021/08/11 13:40:55;;;;;;;1.80;1.50;;;20.00;72.40;;;;;;10458932;28;20228;-66
2021/08/11 13:46:19;;;;;;;1.77;1.67;;;20.00;72.50;;;;;;10454593;28;20201;-65
2021/08/11 13:51:41;;;;;;;1.87;1.70;;;20.00;72.00;;;;;;10454268;28;20579;-65
2021/08/11 13:57:03;;;;;;;1.87;1.67;;;20.00;72.10;;;;;;10453166;28;20240;-65
2021/08/11 14:02:27;;;;;;;5.83;2.00;;;20.00;72.30;;;;;;10452528;28;20792;-65
2021/08/11 14:07:49;;;;;;;4.50;2.10;;;20.20;72.20;;;;;;10452134;28;20615;-61
2021/08/11 14:13:11;;;;;;;563.93;139.73;;;20.20;72.30;;;;;;10453313;28;20217;-63
2021/08/11 14:18:35;;;;;;;192.80;54.00;;;20.40;72.40;;;;;;10453905;28;20213;-68
2021/08/11 14:23:57;;;;;;;100.07;28.70;;;20.50;71.40;;;;;;10455294;28;20193;-62
2021/08/11 14:29:19;;;;;;;86.80;25.93;;;20.50;71.40;;;;;;10452089;28;20638;-61
2021/08/11 14:34:43;;;;;;;84.80;27.40;;;20.50;70.80;;;;;;10449806;28;20626;-62
2021/08/11 14:40:07;;;;;;;89.07;25.73;;;20.40;71.40;;;;;;10449345;28;20359;-61
2021/08/11 14:45:29;;;;;;;67.07;21.80;;;20.30;71.90;;;;;;10459563;28;20204;-61
2021/08/11 14:50:52;;;;;;;49.90;17.47;;;20.20;71.60;;;;;;10430454;28;20205;-61
2021/08/11 14:56:15;;;;;;;55.33;20.23;;;20.30;71.60;;;;;;10455630;28;20220;-60
2021/08/11 15:01:37;;;;;;;49.27;18.43;;;20.20;72.00;;;;;;10486391;28;20213;-60
2021/08/11 15:07:03;;;;;;;47.60;17.50;;;20.20;72.30;;;;;;10442628;28;20197;-60
2021/08/11 15:12:25;;;;;;;41.67;16.70;;;20.20;71.70;;;;;;10452874;28;20225;-60
2021/08/11 15:17:47;;;;;;;43.70;16.00;;;20.20;71.80;;;;;;10451369;28;20216;-58
2021/08/11 15:23:12;;;;;;;39.43;15.60;;;20.10;72.20;;;;;;10410596;28;20236;-60
2021/08/11 15:28:34;;;;;;;31.03;13.07;;;20.10;72.40;;;;;;10447099;28;20196;-57
2021/08/11 15:33:56;;;;;;;30.67;12.53;;;20.10;72.20;;;;;;10451524;28;20583;-56
2021/08/11 15:39:20;;;;;;;31.37;11.43;;;20.10;72.00;;;;;;10451662;28;20323;-57
2021/08/11 15:44:42;;;;;;;27.27;11.80;;;20.10;72.20;;;;;;10373394;28;20596;-58
2021/08/11 15:50:06;;;;;;;25.97;10.73;;;20.10;72.50;;;;;;10360184;28;20206;-58
2021/08/11 15:55:29;;;;;;;22.20;9.57;;;20.10;71.90;;;;;;10332217;28;20277;-58
2021/08/11 16:00:52;;;;;;;21.23;9.77;;;20.10;72.20;;;;;;10326913;28;20731;-59
2021/08/11 16:06:14;;;;;;;20.97;9.33;;;20.10;72.50;;;;;;10333587;28;20272;-57
2021/08/11 16:11:38;;;;;;;17.93;8.20;;;20.00;72.60;;;;;;10335325;28;20218;-60
2021/08/11 16:17:00;;;;;;;15.63;6.77;;;20.10;71.60;;;;;;10331651;28;20187;-60
2021/08/11 16:22:22;;;;;;;15.07;7.60;;;20.00;72.20;;;;;;10332119;28;20222;-60
2021/08/11 16:27:47;;;;;;;15.53;7.60;;;20.00;72.50;;;;;;10331966;28;20196;-60
2021/08/11 16:33:09;;;;;;;14.77;7.00;;;20.00;72.50;;;;;;10332482;28;20215;-59
2021/08/11 16:38:31;;;;;;;16.60;7.23;;;20.10;72.00;;;;;;10333450;28;20301;-59
2021/08/11 16:43:55;;;;;;;14.87;6.97;;;20.10;72.20;;;;;;10333301;28;20576;-65
2021/08/11 16:49:17;;;;;;;14.00;6.23;;;20.10;72.60;;;;;;10333343;28;20229;-60
2021/08/11 16:54:39;;;;;;;10.50;5.17;;;20.10;72.20;;;;;;10361568;28;20198;-65
2021/08/11 17:00:03;;;;;;;11.97;4.80;;;20.20;71.50;;;;;;10374348;28;20241;-63
2021/08/11 17:05:25;;;;;;;8.73;4.73;;;20.20;71.90;;;;;;10374449;28;20209;-63
2021/08/11 17:10:47;;;;;;;9.30;4.30;;;20.20;72.00;;;;;;10350127;28;20218;-63
2021/08/11 17:16:11;;;;;;;5.83;3.30;;;20.20;71.70;;;;;;10332703;28;20195;-63
2021/08/11 17:21:33;;;;;;;5.33;3.37;;;20.20;72.00;;;;;;10336257;28;20222;-61
2021/08/11 17:26:55;;;;;;;6.33;3.30;;;20.20;71.50;;;;;;10352442;28;20222;-62
2021/08/11 17:32:18;;;;;;;7.13;3.90;;;20.20;71.40;;;;;;10327504;28;20421;-60
2021/08/11 17:37:40;;;;;;;4.03;2.70;;;20.70;69.70;;;;;;10335438;28;20214;-58
2021/08/11 17:43:03;;;;;;;6.60;3.73;;;20.40;70.80;;;;;;10336145;28;20231;-60
2021/08/11 17:48:29;;;;;;;4.77;3.10;;;20.30;71.40;;;;;;10366539;28;20187;-61
2021/08/11 17:53:52;;;;;;;4.07;2.53;;;20.20;70.90;;;;;;10320688;28;20195;-61
2021/08/11 17:59:14;;;;;;;4.03;3.10;;;20.20;71.40;;;;;;10329850;28;20225;-60
2021/08/11 18:04:37;;;;;;;5.63;2.87;;;20.10;71.80;;;;;;10355441;28;20196;-60
2021/08/11 18:09:59;;;;;;;3.90;2.70;;;20.20;71.60;;;;;;10338456;28;20709;-62
2021/08/11 18:15:22;;;;;;;4.03;3.07;;;20.20;71.40;;;;;;10329679;28;20192;-59
2021/08/11 18:20:46;;;;;;;3.93;2.90;;;20.20;71.60;;;;;;10328239;28;20219;-60
2021/08/11 18:26:09;;;;;;;3.70;2.43;;;20.10;71.60;;;;;;10357736;28;20210;-58
2021/08/11 18:31:31;;;;;;;3.47;2.27;;;20.20;70.80;;;;;;10370701;28;20225;-60
2021/08/11 18:36:55;;;;;;;3.33;2.33;;;20.20;71.70;;;;;;10341894;28;20581;-59
2021/08/11 18:42:17;;;;;;;2.80;2.27;;;20.20;71.80;;;;;;10327958;28;20234;-60
2021/08/11 18:47:39;;;;;;;3.50;2.53;;;20.20;71.40;;;;;;10329923;28;20207;-60
2021/08/11 18:53:03;;;;;;;2.87;2.30;;;20.20;71.40;;;;;;10329675;28;20219;-59
2021/08/11 18:58:25;;;;;;;3.57;2.27;;;20.20;71.70;;;;;;10328085;28;20710;-58
2021/08/11 19:03:47;;;;;;;4.03;2.00;;;20.20;71.90;;;;;;10329352;28;20650;-59
2021/08/11 19:09:11;;;;;;;2.60;2.17;;;20.20;71.20;;;;;;10327951;28;20704;-59
2021/08/11 19:14:34;;;;;;;3.67;2.30;;;20.20;71.80;;;;;;10336542;28;20202;-57
2021/08/11 19:19:56;;;;;;;2.83;2.40;;;20.20;71.90;;;;;;10356008;28;20814;-60
2021/08/11 19:25:19;;;;;;;2.27;2.00;;;20.20;71.60;;;;;;10345729;28;20214;-60
2021/08/11 19:30:41;;;;;;;2.03;1.70;;;20.20;71.40;;;;;;10326905;28;20211;-59
2021/08/11 19:36:04;;;;;;;3.43;2.30;;;20.20;71.60;;;;;;10337981;28;20566;-59
2021/08/11 19:41:28;;;;;;;2.77;1.73;;;20.20;71.80;;;;;;10343690;28;20597;-60
2021/08/11 19:46:50;;;;;;;3.80;2.53;;;20.20;70.90;;;;;;10347097;28;20668;-60
2021/08/11 19:52:13;;;;;;;2.20;2.00;;;20.20;71.40;;;;;;10351235;28;20589;-60
2021/08/11 19:57:37;;;;;;;2.63;2.00;;;20.20;71.60;;;;;;10332629;28;20216;-60
2021/08/11 20:02:59;;;;;;;2.43;1.90;;;20.20;71.50;;;;;;10335467;28;20215;-60
2021/08/11 20:08:21;;;;;;;2.67;2.10;;;20.20;71.20;;;;;;10352187;28;20206;-60
2021/08/11 20:13:44;;;;;;;2.27;1.83;;;20.20;71.30;;;;;;10336399;28;20203;-60
2021/08/11 20:19:08;;;;;;;2.17;1.97;;;20.20;71.50;;;;;;10335112;28;20219;-60
2021/08/11 20:24:30;;;;;;;2.27;1.93;;;20.10;71.70;;;;;;10338289;28;20572;-60
2021/08/11 20:29:53;;;;;;;2.10;1.90;;;20.10;71.90;;;;;;10348294;28;20242;-60
2021/08/11 20:35:15;;;;;;;2.70;1.83;;;20.10;72.10;;;;;;10334411;28;20195;-60
2021/08/11 20:40:37;;;;;;;3.00;2.30;;;20.10;72.30;;;;;;10347236;28;20218;-60
2021/08/11 20:46:01;;;;;;;2.30;2.10;;;20.10;72.50;;;;;;10334557;28;20218;-60
2021/08/11 20:51:23;;;;;;;2.43;1.83;;;20.10;72.60;;;;;;10381047;28;20589;-68
2021/08/11 20:56:45;;;;;;;2.20;2.00;;;20.10;72.70;;;;;;10336818;28;20560;-61
2021/08/11 21:02:09;;;;;;;2.33;2.00;;;20.00;72.90;;;;;;10341312;28;20713;-61
2021/08/11 21:07:31;;;;;;;2.37;2.10;;;20.10;73.00;;;;;;10338346;28;20213;-61
2021/08/11 21:12:53;;;;;;;2.27;2.07;;;20.00;73.10;;;;;;10334898;28;20241;-61
2021/08/11 21:18:16;;;;;;;2.73;2.50;;;20.00;73.10;;;;;;10332710;28;20227;-60
2021/08/11 21:23:38;;;;;;;4.33;2.27;;;20.00;73.20;;;;;;10357447;28;20207;-62
2021/08/11 21:29:00;;;;;;;2.90;2.30;;;20.10;73.30;;;;;;10336576;28;20219;-62
2021/08/11 21:34:24;;;;;;;2.33;2.13;;;20.00;73.30;;;;;;10332178;28;20210;-62
2021/08/11 21:39:46;;;;;;;2.43;2.00;;;20.00;73.40;;;;;;10331920;28;20227;-60
2021/08/11 21:45:09;;;;;;;2.57;2.07;;;20.00;73.40;;;;;;10330833;28;20200;-60
2021/08/11 21:50:32;;;;;;;2.33;2.10;;;20.00;73.50;;;;;;10331062;28;20712;-62
2021/08/11 21:55:55;;;;;;;2.70;2.50;;;20.00;73.50;;;;;;10331390;28;20199;-62
2021/08/11 22:01:17;;;;;;;2.60;2.40;;;20.00;73.60;;;;;;10330502;28;20223;-61
2021/08/11 22:06:41;;;;;;;3.57;2.50;;;20.00;73.60;;;;;;10325934;28;20199;-62
2021/08/11 22:12:03;;;;;;;2.70;2.50;;;20.00;73.70;;;;;;10332572;28;20214;-63
2021/08/11 22:17:25;;;;;;;2.80;2.37;;;20.00;73.70;;;;;;10331277;28;20712;-62
2021/08/11 22:22:50;;;;;;;2.60;2.40;;;20.00;73.70;;;;;;10330544;28;20234;-63
2021/08/11 22:28:12;;;;;;;2.97;2.67;;;20.00;73.70;;;;;;10330456;28;20210;-63
2021/08/11 22:33:35;;;;;;;2.40;2.20;;;20.00;73.70;;;;;;10337747;28;20218;-58
2021/08/11 22:38:58;;;;;;;4.63;2.50;;;20.00;73.70;;;;;;10323600;28;20227;-60
2021/08/11 22:44:20;;;;;;;3.33;2.40;;;20.00;73.70;;;;;;10331086;28;20207;-61
2021/08/11 22:49:42;;;;;;;3.67;3.07;;;20.00;73.70;;;;;;10328957;28;20698;-61
2021/08/11 22:55:07;;;;;;;2.97;2.67;;;20.00;73.70;;;;;;10318640;28;20198;-61
2021/08/11 23:00:29;;;;;;;3.00;2.73;;;20.00;73.80;;;;;;10332197;28;20237;-61
2021/08/11 23:05:51;;;;;;;3.07;2.77;;;20.00;73.80;;;;;;10331171;28;20210;-62
2021/08/11 23:11:14;;;;;;;2.60;2.40;;;20.00;73.70;;;;;;10331494;28;20214;-62
2021/08/11 23:16:36;;;;;;;2.60;2.40;;;20.00;73.80;;;;;;10328887;28;20203;-60
2021/08/11 23:21:59;;;;;;;2.57;2.37;;;20.00;73.70;;;;;;10339218;28;20739;-62
2021/08/11 23:27:22;;;;;;;2.60;2.40;;;20.00;73.70;;;;;;10351576;28;20198;-62
2021/08/11 23:32:44;;;;;;;3.10;2.77;;;20.00;73.70;;;;;;10369230;28;20218;-62
2021/08/11 23:38:07;;;;;;;2.70;2.50;;;20.00;73.70;;;;;;10359958;28;20206;-61
2021/08/11 23:43:30;;;;;;;3.10;2.80;;;20.00;73.70;;;;;;10319047;28;20253;-62
2021/08/11 23:48:52;;;;;;;3.27;2.63;;;20.00;74.30;;;;;;10328764;28;20198;-61
2021/08/11 23:54:14;;;;;;;3.20;2.70;;;20.00;73.70;;;;;;10340880;28;20194;-60
2021/08/11 23:59:38;;;;;;;3.00;2.63;;;20.00;73.70;;;;;;10327200;28;20227;-62
